sensor_id;sensor_type;location;lat;lon;timestamp;temperature;humidity
19359;DHT22;9815;52.334;20.890;2023-04-26T00:00:18;7.10;99.90
19359;DHT22;9815;52.334;20.890;2023-04-26T00:02:47;7.10;99.90
19359;DHT22;9815;52.334;20.890;2023-04-26T00:05:17;7.10;99.90
19359;DHT22;9815;52.334;20.890;2023-04-26T00:07:45;7.10;99.90
19359;DHT22;9815;52.334;20.890;2023-04-26T00:10:16;7.10;99.90
19359;DHT22;9815;52.334;20.890;2023-04-26T00:12:44;7.00;99.90
19359;DHT22;9815;52.334;20.890;2023-04-26T00:15:12;7.00;99.90
19359;DHT22;9815;52.334;20.890;2023-04-26T00:17:40;6.90;99.90
19359;DHT22;9815;52.334;20.890;2023-04-26T00:20:10;6.90;99.90
19359;DHT22;9815;52.334;20.890;2023-04-26T00:22:40;6.80;99.90
19359;DHT22;9815;52.334;20.890;2023-04-26T00:25:09;6.80;99.90
19359;DHT22;9815;52.334;20.890;2023-04-26T00:27:38;6.80;99.90
19359;DHT22;9815;52.334;20.890;2023-04-26T00:30:07;6.80;99.90
19359;DHT22;9815;52.334;20.890;2023-04-26T00:32:36;6.80;99.90
19359;DHT22;9815;52.334;20.890;2023-04-26T00:35:06;6.80;99.90
19359;DHT22;9815;52.334;20.890;2023-04-26T00:37:34;6.70;99.90
19359;DHT22;9815;52.334;20.890;2023-04-26T00:40:05;6.60;99.90
19359;DHT22;9815;52.334;20.890;2023-04-26T00:42:33;6.70;99.90
19359;DHT22;9815;52.334;20.890;2023-04-26T00:45:02;6.70;99.90
19359;DHT22;9815;52.334;20.890;2023-04-26T00:47:31;6.70;99.90
19359;DHT22;9815;52.334;20.890;2023-04-26T00:49:59;6.80;99.90
19359;DHT22;9815;52.334;20.890;2023-04-26T00:52:28;6.70;99.90
19359;DHT22;9815;52.334;20.890;2023-04-26T00:54:56;6.80;99.90
19359;DHT22;9815;52.334;20.890;2023-04-26T00:57:26;6.80;99.90
19359;DHT22;9815;52.334;20.890;2023-04-26T00:59:54;6.70;99.90
19359;DHT22;9815;52.334;20.890;2023-04-26T01:02:22;6.80;99.90
19359;DHT22;9815;52.334;20.890;2023-04-26T01:04:50;6.80;99.90
19359;DHT22;9815;52.334;20.890;2023-04-26T01:07:19;6.70;99.90
19359;DHT22;9815;52.334;20.890;2023-04-26T01:09:48;6.70;99.90
19359;DHT22;9815;52.334;20.890;2023-04-26T01:12:16;6.70;99.90
19359;DHT22;9815;52.334;20.890;2023-04-26T01:14:46;6.70;99.90
19359;DHT22;9815;52.334;20.890;2023-04-26T01:17:14;6.70;99.90
19359;DHT22;9815;52.334;20.890;2023-04-26T01:19:46;6.80;99.90
19359;DHT22;9815;52.334;20.890;2023-04-26T01:22:14;6.70;99.90
19359;DHT22;9815;52.334;20.890;2023-04-26T01:24:47;6.70;99.90
19359;DHT22;9815;52.334;20.890;2023-04-26T01:27:15;6.70;99.90
19359;DHT22;9815;52.334;20.890;2023-04-26T01:29:43;6.80;99.90
19359;DHT22;9815;52.334;20.890;2023-04-26T01:32:11;6.80;99.90
19359;DHT22;9815;52.334;20.890;2023-04-26T01:34:39;6.80;99.90
19359;DHT22;9815;52.334;20.890;2023-04-26T01:37:09;6.80;99.90
19359;DHT22;9815;52.334;20.890;2023-04-26T01:39:38;6.70;99.90
19359;DHT22;9815;52.334;20.890;2023-04-26T01:42:07;6.70;99.90
19359;DHT22;9815;52.334;20.890;2023-04-26T01:44:35;6.70;99.90
19359;DHT22;9815;52.334;20.890;2023-04-26T01:47:03;6.70;99.90
19359;DHT22;9815;52.334;20.890;2023-04-26T01:49:32;6.60;99.90
19359;DHT22;9815;52.334;20.890;2023-04-26T01:52:00;6.60;99.90
19359;DHT22;9815;52.334;20.890;2023-04-26T01:54:29;6.50;99.90
19359;DHT22;9815;52.334;20.890;2023-04-26T01:56:59;6.40;99.90
19359;DHT22;9815;52.334;20.890;2023-04-26T01:59:29;6.40;99.90
19359;DHT22;9815;52.334;20.890;2023-04-26T02:01:57;6.40;99.90
19359;DHT22;9815;52.334;20.890;2023-04-26T02:04:26;6.20;99.90
19359;DHT22;9815;52.334;20.890;2023-04-26T02:06:54;6.20;99.90
19359;DHT22;9815;52.334;20.890;2023-04-26T02:09:23;6.30;99.90
19359;DHT22;9815;52.334;20.890;2023-04-26T02:11:51;6.30;99.90
19359;DHT22;9815;52.334;20.890;2023-04-26T02:14:19;6.30;99.90
19359;DHT22;9815;52.334;20.890;2023-04-26T02:16:49;6.30;99.90
19359;DHT22;9815;52.334;20.890;2023-04-26T02:19:17;6.30;99.90
19359;DHT22;9815;52.334;20.890;2023-04-26T02:21:53;6.30;99.90
19359;DHT22;9815;52.334;20.890;2023-04-26T02:24:22;6.40;99.90
19359;DHT22;9815;52.334;20.890;2023-04-26T02:26:51;6.40;99.90
19359;DHT22;9815;52.334;20.890;2023-04-26T02:29:20;6.40;99.90
19359;DHT22;9815;52.334;20.890;2023-04-26T02:32:09;6.40;99.90
19359;DHT22;9815;52.334;20.890;2023-04-26T02:34:37;6.40;99.90
19359;DHT22;9815;52.334;20.890;2023-04-26T02:37:05;6.40;99.90
19359;DHT22;9815;52.334;20.890;2023-04-26T02:39:33;6.40;99.90
19359;DHT22;9815;52.334;20.890;2023-04-26T02:42:01;6.40;99.90
19359;DHT22;9815;52.334;20.890;2023-04-26T02:44:30;6.50;99.90
19359;DHT22;9815;52.334;20.890;2023-04-26T02:46:58;6.50;99.90
19359;DHT22;9815;52.334;20.890;2023-04-26T02:49:29;6.50;99.90
19359;DHT22;9815;52.334;20.890;2023-04-26T02:51:58;6.50;99.90
19359;DHT22;9815;52.334;20.890;2023-04-26T02:54:27;6.50;99.90
19359;DHT22;9815;52.334;20.890;2023-04-26T02:56:55;6.50;99.90
19359;DHT22;9815;52.334;20.890;2023-04-26T02:59:24;6.50;99.90
19359;DHT22;9815;52.334;20.890;2023-04-26T03:01:52;6.50;99.90
19359;DHT22;9815;52.334;20.890;2023-04-26T03:04:20;6.50;99.90
19359;DHT22;9815;52.334;20.890;2023-04-26T03:06:49;6.40;99.90
19359;DHT22;9815;52.334;20.890;2023-04-26T03:09:18;6.50;99.90
19359;DHT22;9815;52.334;20.890;2023-04-26T03:11:46;6.40;99.90
19359;DHT22;9815;52.334;20.890;2023-04-26T03:14:16;6.30;99.90
19359;DHT22;9815;52.334;20.890;2023-04-26T03:16:44;6.30;99.90
19359;DHT22;9815;52.334;20.890;2023-04-26T03:19:14;6.20;99.90
19359;DHT22;9815;52.334;20.890;2023-04-26T03:21:42;6.10;99.90
19359;DHT22;9815;52.334;20.890;2023-04-26T03:24:12;6.00;99.90
19359;DHT22;9815;52.334;20.890;2023-04-26T03:26:40;5.90;99.90
19359;DHT22;9815;52.334;20.890;2023-04-26T03:29:08;5.90;99.90
19359;DHT22;9815;52.334;20.890;2023-04-26T03:31:36;5.80;99.90
19359;DHT22;9815;52.334;20.890;2023-04-26T03:34:05;5.70;99.90
19359;DHT22;9815;52.334;20.890;2023-04-26T03:36:33;5.60;99.90
19359;DHT22;9815;52.334;20.890;2023-04-26T03:39:04;5.50;99.90
19359;DHT22;9815;52.334;20.890;2023-04-26T03:41:35;5.50;99.90
19359;DHT22;9815;52.334;20.890;2023-04-26T03:44:06;5.40;99.90
19359;DHT22;9815;52.334;20.890;2023-04-26T03:46:34;5.40;99.90
19359;DHT22;9815;52.334;20.890;2023-04-26T03:49:02;5.30;99.90
19359;DHT22;9815;52.334;20.890;2023-04-26T03:51:31;5.30;99.90
19359;DHT22;9815;52.334;20.890;2023-04-26T03:53:59;5.20;99.90
19359;DHT22;9815;52.334;20.890;2023-04-26T03:56:27;5.10;99.90
19359;DHT22;9815;52.334;20.890;2023-04-26T03:58:56;5.10;99.90
19359;DHT22;9815;52.334;20.890;2023-04-26T04:01:25;5.10;99.90
19359;DHT22;9815;52.334;20.890;2023-04-26T04:03:54;5.00;99.90
19359;DHT22;9815;52.334;20.890;2023-04-26T04:06:23;5.00;99.90
19359;DHT22;9815;52.334;20.890;2023-04-26T04:08:51;5.00;99.90
19359;DHT22;9815;52.334;20.890;2023-04-26T04:11:21;4.90;99.90
19359;DHT22;9815;52.334;20.890;2023-04-26T04:13:49;4.90;99.90
19359;DHT22;9815;52.334;20.890;2023-04-26T04:16:19;4.90;99.90
19359;DHT22;9815;52.334;20.890;2023-04-26T04:18:47;4.90;99.90
19359;DHT22;9815;52.334;20.890;2023-04-26T04:21:16;4.90;99.90
19359;DHT22;9815;52.334;20.890;2023-04-26T04:23:44;4.80;99.90
19359;DHT22;9815;52.334;20.890;2023-04-26T04:26:13;4.80;99.90
19359;DHT22;9815;52.334;20.890;2023-04-26T04:28:41;4.80;99.90
19359;DHT22;9815;52.334;20.890;2023-04-26T04:31:11;4.80;99.90
19359;DHT22;9815;52.334;20.890;2023-04-26T04:33:41;4.90;99.90
19359;DHT22;9815;52.334;20.890;2023-04-26T04:36:09;4.90;99.90
19359;DHT22;9815;52.334;20.890;2023-04-26T04:38:37;5.00;99.90
19359;DHT22;9815;52.334;20.890;2023-04-26T04:41:06;5.10;99.90
19359;DHT22;9815;52.334;20.890;2023-04-26T04:43:36;5.20;99.90
19359;DHT22;9815;52.334;20.890;2023-04-26T04:46:05;5.20;99.90
19359;DHT22;9815;52.334;20.890;2023-04-26T04:48:33;5.30;99.90
19359;DHT22;9815;52.334;20.890;2023-04-26T04:51:02;5.30;99.90
19359;DHT22;9815;52.334;20.890;2023-04-26T04:53:30;5.40;99.90
19359;DHT22;9815;52.334;20.890;2023-04-26T04:55:58;5.50;99.90
19359;DHT22;9815;52.334;20.890;2023-04-26T04:58:27;5.40;99.90
19359;DHT22;9815;52.334;20.890;2023-04-26T05:00:55;5.40;99.90
19359;DHT22;9815;52.334;20.890;2023-04-26T05:03:40;5.40;99.90
19359;DHT22;9815;52.334;20.890;2023-04-26T05:06:10;5.40;99.90
19359;DHT22;9815;52.334;20.890;2023-04-26T05:08:38;5.40;99.90
19359;DHT22;9815;52.334;20.890;2023-04-26T05:11:07;5.40;99.90
19359;DHT22;9815;52.334;20.890;2023-04-26T05:13:36;5.40;99.90
19359;DHT22;9815;52.334;20.890;2023-04-26T05:16:05;5.40;99.90
19359;DHT22;9815;52.334;20.890;2023-04-26T05:18:33;5.40;99.90
19359;DHT22;9815;52.334;20.890;2023-04-26T05:21:01;5.30;99.90
19359;DHT22;9815;52.334;20.890;2023-04-26T05:23:31;5.30;99.90
19359;DHT22;9815;52.334;20.890;2023-04-26T05:26:01;5.30;99.90
19359;DHT22;9815;52.334;20.890;2023-04-26T05:28:53;5.30;99.90
19359;DHT22;9815;52.334;20.890;2023-04-26T05:31:44;5.40;99.90
19359;DHT22;9815;52.334;20.890;2023-04-26T05:34:22;5.40;99.90
19359;DHT22;9815;52.334;20.890;2023-04-26T05:36:54;5.40;99.90
19359;DHT22;9815;52.334;20.890;2023-04-26T05:39:24;5.60;99.90
19359;DHT22;9815;52.334;20.890;2023-04-26T05:41:52;5.70;99.90
19359;DHT22;9815;52.334;20.890;2023-04-26T05:44:20;5.70;99.90
19359;DHT22;9815;52.334;20.890;2023-04-26T05:46:48;5.90;99.90
19359;DHT22;9815;52.334;20.890;2023-04-26T05:49:17;6.00;99.90
19359;DHT22;9815;52.334;20.890;2023-04-26T05:51:45;6.00;99.90
19359;DHT22;9815;52.334;20.890;2023-04-26T05:54:13;6.20;99.90
19359;DHT22;9815;52.334;20.890;2023-04-26T05:56:42;6.30;99.90
19359;DHT22;9815;52.334;20.890;2023-04-26T05:59:10;6.30;99.90
19359;DHT22;9815;52.334;20.890;2023-04-26T06:01:39;6.30;99.90
19359;DHT22;9815;52.334;20.890;2023-04-26T06:04:07;6.40;99.90
19359;DHT22;9815;52.334;20.890;2023-04-26T06:06:46;6.50;99.90
19359;DHT22;9815;52.334;20.890;2023-04-26T06:09:14;6.70;99.90
19359;DHT22;9815;52.334;20.890;2023-04-26T06:11:47;6.70;99.90
19359;DHT22;9815;52.334;20.890;2023-04-26T06:14:15;6.70;99.90
19359;DHT22;9815;52.334;20.890;2023-04-26T06:16:57;6.90;99.90
19359;DHT22;9815;52.334;20.890;2023-04-26T06:19:27;7.00;99.90
19359;DHT22;9815;52.334;20.890;2023-04-26T06:21:55;7.10;99.90
19359;DHT22;9815;52.334;20.890;2023-04-26T06:24:23;7.10;99.90
19359;DHT22;9815;52.334;20.890;2023-04-26T06:26:53;7.20;99.90
19359;DHT22;9815;52.334;20.890;2023-04-26T06:29:21;7.20;99.90
19359;DHT22;9815;52.334;20.890;2023-04-26T06:31:49;7.40;99.90
19359;DHT22;9815;52.334;20.890;2023-04-26T06:34:19;7.50;99.90
19359;DHT22;9815;52.334;20.890;2023-04-26T06:36:47;7.40;99.90
19359;DHT22;9815;52.334;20.890;2023-04-26T06:39:16;7.40;99.90
19359;DHT22;9815;52.334;20.890;2023-04-26T06:41:44;7.50;99.90
19359;DHT22;9815;52.334;20.890;2023-04-26T06:44:24;7.70;99.90
19359;DHT22;9815;52.334;20.890;2023-04-26T06:47:00;7.70;99.90
19359;DHT22;9815;52.334;20.890;2023-04-26T06:49:28;7.70;99.90
19359;DHT22;9815;52.334;20.890;2023-04-26T06:51:56;7.70;99.90
19359;DHT22;9815;52.334;20.890;2023-04-26T06:54:27;7.90;99.90
19359;DHT22;9815;52.334;20.890;2023-04-26T06:56:55;7.90;99.90
19359;DHT22;9815;52.334;20.890;2023-04-26T06:59:28;8.00;99.90
19359;DHT22;9815;52.334;20.890;2023-04-26T07:01:56;8.10;99.90
19359;DHT22;9815;52.334;20.890;2023-04-26T07:04:24;8.20;99.90
19359;DHT22;9815;52.334;20.890;2023-04-26T07:06:53;8.20;99.90
19359;DHT22;9815;52.334;20.890;2023-04-26T07:09:22;8.20;99.90
19359;DHT22;9815;52.334;20.890;2023-04-26T07:11:50;8.30;99.90
19359;DHT22;9815;52.334;20.890;2023-04-26T07:14:18;8.50;99.90
19359;DHT22;9815;52.334;20.890;2023-04-26T07:16:47;8.80;99.90
19359;DHT22;9815;52.334;20.890;2023-04-26T07:19:15;9.10;99.90
19359;DHT22;9815;52.334;20.890;2023-04-26T07:21:43;9.20;98.80
19359;DHT22;9815;52.334;20.890;2023-04-26T07:24:12;9.10;99.90
19359;DHT22;9815;52.334;20.890;2023-04-26T07:26:40;9.20;99.90
19359;DHT22;9815;52.334;20.890;2023-04-26T07:29:08;9.40;99.90
19359;DHT22;9815;52.334;20.890;2023-04-26T07:31:38;9.30;99.90
19359;DHT22;9815;52.334;20.890;2023-04-26T07:34:07;9.30;99.90
19359;DHT22;9815;52.334;20.890;2023-04-26T07:36:35;9.60;96.20
19359;DHT22;9815;52.334;20.890;2023-04-26T07:39:03;9.70;90.80
19359;DHT22;9815;52.334;20.890;2023-04-26T07:41:32;9.50;91.70
19359;DHT22;9815;52.334;20.890;2023-04-26T07:44:00;9.30;84.60
19359;DHT22;9815;52.334;20.890;2023-04-26T07:46:28;9.40;93.10
19359;DHT22;9815;52.334;20.890;2023-04-26T07:48:56;9.70;94.00
19359;DHT22;9815;52.334;20.890;2023-04-26T07:51:26;9.80;78.40
19359;DHT22;9815;52.334;20.890;2023-04-26T07:53:54;9.80;81.50
19359;DHT22;9815;52.334;20.890;2023-04-26T07:56:22;9.70;89.00
19359;DHT22;9815;52.334;20.890;2023-04-26T07:58:50;9.80;97.30
19359;DHT22;9815;52.334;20.890;2023-04-26T08:01:18;10.20;87.00
19359;DHT22;9815;52.334;20.890;2023-04-26T08:03:47;10.50;88.20
19359;DHT22;9815;52.334;20.890;2023-04-26T08:06:16;10.30;61.50
19359;DHT22;9815;52.334;20.890;2023-04-26T08:08:47;10.20;77.00
19359;DHT22;9815;52.334;20.890;2023-04-26T08:11:16;9.90;76.70
19359;DHT22;9815;52.334;20.890;2023-04-26T08:13:44;9.40;71.80
19359;DHT22;9815;52.334;20.890;2023-04-26T08:16:14;9.20;91.20
19359;DHT22;9815;52.334;20.890;2023-04-26T08:18:42;9.10;93.10
19359;DHT22;9815;52.334;20.890;2023-04-26T08:21:12;9.40;93.50
19359;DHT22;9815;52.334;20.890;2023-04-26T08:23:41;9.80;88.20
19359;DHT22;9815;52.334;20.890;2023-04-26T08:26:10;9.80;83.50
19359;DHT22;9815;52.334;20.890;2023-04-26T08:28:38;9.90;85.10
19359;DHT22;9815;52.334;20.890;2023-04-26T08:31:07;9.60;76.70
19359;DHT22;9815;52.334;20.890;2023-04-26T08:33:35;9.60;84.20
19359;DHT22;9815;52.334;20.890;2023-04-26T08:36:04;10.30;81.70
19359;DHT22;9815;52.334;20.890;2023-04-26T08:38:32;10.70;68.40
19359;DHT22;9815;52.334;20.890;2023-04-26T08:41:01;11.40;61.00
19359;DHT22;9815;52.334;20.890;2023-04-26T08:43:36;11.90;53.50
19359;DHT22;9815;52.334;20.890;2023-04-26T08:46:06;12.10;44.50
19359;DHT22;9815;52.334;20.890;2023-04-26T08:48:37;11.90;46.40
19359;DHT22;9815;52.334;20.890;2023-04-26T08:51:06;11.30;49.70
19359;DHT22;9815;52.334;20.890;2023-04-26T08:53:38;10.50;49.10
19359;DHT22;9815;52.334;20.890;2023-04-26T08:56:07;10.00;55.20
19359;DHT22;9815;52.334;20.890;2023-04-26T08:58:39;9.50;59.40
19359;DHT22;9815;52.334;20.890;2023-04-26T09:01:08;9.10;66.20
19359;DHT22;9815;52.334;20.890;2023-04-26T09:03:37;9.00;78.10
19359;DHT22;9815;52.334;20.890;2023-04-26T09:06:06;9.00;86.90
19359;DHT22;9815;52.334;20.890;2023-04-26T09:08:35;9.30;81.30
19359;DHT22;9815;52.334;20.890;2023-04-26T09:11:06;10.30;79.50
19359;DHT22;9815;52.334;20.890;2023-04-26T09:13:34;10.40;60.60
19359;DHT22;9815;52.334;20.890;2023-04-26T09:16:03;10.20;49.80
19359;DHT22;9815;52.334;20.890;2023-04-26T09:18:32;9.90;49.80
19359;DHT22;9815;52.334;20.890;2023-04-26T09:21:02;9.60;56.30
19359;DHT22;9815;52.334;20.890;2023-04-26T09:23:31;9.40;50.10
19359;DHT22;9815;52.334;20.890;2023-04-26T09:26:19;9.30;58.80
19359;DHT22;9815;52.334;20.890;2023-04-26T09:28:47;9.40;55.80
19359;DHT22;9815;52.334;20.890;2023-04-26T09:31:37;9.80;50.50
19359;DHT22;9815;52.334;20.890;2023-04-26T09:34:05;9.90;51.30
19359;DHT22;9815;52.334;20.890;2023-04-26T09:36:46;10.30;48.60
19359;DHT22;9815;52.334;20.890;2023-04-26T09:39:14;10.80;43.50
19359;DHT22;9815;52.334;20.890;2023-04-26T09:41:42;11.20;42.20
19359;DHT22;9815;52.334;20.890;2023-04-26T09:44:21;11.40;37.40
19359;DHT22;9815;52.334;20.890;2023-04-26T09:47:02;10.90;36.00
19359;DHT22;9815;52.334;20.890;2023-04-26T09:49:42;10.10;38.40
19359;DHT22;9815;52.334;20.890;2023-04-26T09:52:10;9.80;42.40
19359;DHT22;9815;52.334;20.890;2023-04-26T09:54:39;9.50;47.20
19359;DHT22;9815;52.334;20.890;2023-04-26T09:57:08;9.40;46.60
19359;DHT22;9815;52.334;20.890;2023-04-26T09:59:44;9.40;48.60
19359;DHT22;9815;52.334;20.890;2023-04-26T10:02:18;9.60;46.70
19359;DHT22;9815;52.334;20.890;2023-04-26T10:04:48;9.60;43.70
19359;DHT22;9815;52.334;20.890;2023-04-26T10:07:19;9.70;42.00
19359;DHT22;9815;52.334;20.890;2023-04-26T10:09:48;9.70;42.20
19359;DHT22;9815;52.334;20.890;2023-04-26T10:12:18;9.90;40.20
19359;DHT22;9815;52.334;20.890;2023-04-26T10:14:47;10.10;41.30
19359;DHT22;9815;52.334;20.890;2023-04-26T10:17:19;10.70;38.60
19359;DHT22;9815;52.334;20.890;2023-04-26T10:19:50;10.60;35.90
19359;DHT22;9815;52.334;20.890;2023-04-26T10:22:22;10.30;35.60
19359;DHT22;9815;52.334;20.890;2023-04-26T10:24:53;10.10;37.60
19359;DHT22;9815;52.334;20.890;2023-04-26T10:27:49;9.90;39.00
19359;DHT22;9815;52.334;20.890;2023-04-26T10:30:20;9.60;37.90
19359;DHT22;9815;52.334;20.890;2023-04-26T10:33:21;9.50;40.00
19359;DHT22;9815;52.334;20.890;2023-04-26T10:36:07;9.60;39.90
19359;DHT22;9815;52.334;20.890;2023-04-26T10:38:37;9.90;39.40
19359;DHT22;9815;52.334;20.890;2023-04-26T10:44:36;10.40;43.00
19359;DHT22;9815;52.334;20.890;2023-04-26T10:47:04;10.40;37.40
19359;DHT22;9815;52.334;20.890;2023-04-26T10:49:45;10.20;36.00
19359;DHT22;9815;52.334;20.890;2023-04-26T10:52:14;10.00;36.00
19359;DHT22;9815;52.334;20.890;2023-04-26T10:54:48;10.00;37.60
19359;DHT22;9815;52.334;20.890;2023-04-26T10:57:17;10.00;37.40
19359;DHT22;9815;52.334;20.890;2023-04-26T11:03:04;10.20;37.10
19359;DHT22;9815;52.334;20.890;2023-04-26T11:05:46;10.70;39.10
19359;DHT22;9815;52.334;20.890;2023-04-26T11:08:18;11.10;35.80
19359;DHT22;9815;52.334;20.890;2023-04-26T11:10:56;11.40;35.30
19359;DHT22;9815;52.334;20.890;2023-04-26T11:13:24;11.20;35.60
19359;DHT22;9815;52.334;20.890;2023-04-26T11:15:53;10.90;35.10
19359;DHT22;9815;52.334;20.890;2023-04-26T11:18:21;10.50;35.60
19359;DHT22;9815;52.334;20.890;2023-04-26T11:20:50;10.80;37.00
19359;DHT22;9815;52.334;20.890;2023-04-26T11:23:18;11.50;31.20
19359;DHT22;9815;52.334;20.890;2023-04-26T11:25:47;12.40;31.10
19359;DHT22;9815;52.334;20.890;2023-04-26T11:28:15;12.90;30.00
19359;DHT22;9815;52.334;20.890;2023-04-26T11:30:45;12.80;28.90
19359;DHT22;9815;52.334;20.890;2023-04-26T11:33:17;12.40;30.00
19359;DHT22;9815;52.334;20.890;2023-04-26T11:35:48;12.10;31.00
19359;DHT22;9815;52.334;20.890;2023-04-26T11:38:21;11.50;30.10
19359;DHT22;9815;52.334;20.890;2023-04-26T11:40:52;11.00;32.40
19359;DHT22;9815;52.334;20.890;2023-04-26T11:43:21;10.60;34.70
19359;DHT22;9815;52.334;20.890;2023-04-26T11:45:50;10.50;34.00
19359;DHT22;9815;52.334;20.890;2023-04-26T11:48:18;10.50;34.30
19359;DHT22;9815;52.334;20.890;2023-04-26T11:50:46;10.30;33.70
19359;DHT22;9815;52.334;20.890;2023-04-26T11:53:14;10.40;35.40
19359;DHT22;9815;52.334;20.890;2023-04-26T11:55:44;10.40;34.70
19359;DHT22;9815;52.334;20.890;2023-04-26T11:58:13;10.60;36.00
19359;DHT22;9815;52.334;20.890;2023-04-26T12:00:57;10.70;32.40
19359;DHT22;9815;52.334;20.890;2023-04-26T12:03:29;10.80;33.30
19359;DHT22;9815;52.334;20.890;2023-04-26T12:05:58;10.60;34.20
19359;DHT22;9815;52.334;20.890;2023-04-26T12:08:27;10.60;35.90
19359;DHT22;9815;52.334;20.890;2023-04-26T12:11:00;10.40;35.20
19359;DHT22;9815;52.334;20.890;2023-04-26T12:13:28;10.10;34.60
19359;DHT22;9815;52.334;20.890;2023-04-26T12:15:58;9.80;36.80
19359;DHT22;9815;52.334;20.890;2023-04-26T12:18:30;9.70;39.00
19359;DHT22;9815;52.334;20.890;2023-04-26T12:20:59;9.60;39.60
19359;DHT22;9815;52.334;20.890;2023-04-26T12:23:36;9.40;40.80
19359;DHT22;9815;52.334;20.890;2023-04-26T12:26:06;9.50;39.30
19359;DHT22;9815;52.334;20.890;2023-04-26T12:28:36;9.70;38.90
19359;DHT22;9815;52.334;20.890;2023-04-26T12:31:05;9.80;36.70
19359;DHT22;9815;52.334;20.890;2023-04-26T12:33:34;10.00;34.90
19359;DHT22;9815;52.334;20.890;2023-04-26T12:36:07;9.90;33.80
19359;DHT22;9815;52.334;20.890;2023-04-26T12:38:35;10.10;36.40
19359;DHT22;9815;52.334;20.890;2023-04-26T12:41:05;10.00;36.70
19359;DHT22;9815;52.334;20.890;2023-04-26T12:43:33;10.00;35.50
19359;DHT22;9815;52.334;20.890;2023-04-26T12:46:01;10.10;35.50
19359;DHT22;9815;52.334;20.890;2023-04-26T12:48:29;10.20;33.50
19359;DHT22;9815;52.334;20.890;2023-04-26T12:50:57;10.20;33.10
19359;DHT22;9815;52.334;20.890;2023-04-26T12:53:26;10.40;33.50
19359;DHT22;9815;52.334;20.890;2023-04-26T12:55:54;10.10;33.20
19359;DHT22;9815;52.334;20.890;2023-04-26T12:58:24;10.10;34.40
19359;DHT22;9815;52.334;20.890;2023-04-26T13:00:52;10.20;36.20
19359;DHT22;9815;52.334;20.890;2023-04-26T13:03:20;10.20;36.60
19359;DHT22;9815;52.334;20.890;2023-04-26T13:05:48;10.00;31.90
19359;DHT22;9815;52.334;20.890;2023-04-26T13:08:17;10.10;31.60
19359;DHT22;9815;52.334;20.890;2023-04-26T13:10:51;10.30;34.00
19359;DHT22;9815;52.334;20.890;2023-04-26T13:13:19;10.70;33.30
19359;DHT22;9815;52.334;20.890;2023-04-26T13:16:03;10.80;31.70
19359;DHT22;9815;52.334;20.890;2023-04-26T13:18:31;10.80;34.00
19359;DHT22;9815;52.334;20.890;2023-04-26T13:21:00;10.50;34.40
19359;DHT22;9815;52.334;20.890;2023-04-26T13:23:28;10.30;35.20
19359;DHT22;9815;52.334;20.890;2023-04-26T13:25:56;10.10;35.10
19359;DHT22;9815;52.334;20.890;2023-04-26T13:28:24;10.00;35.20
19359;DHT22;9815;52.334;20.890;2023-04-26T13:30:52;10.00;35.80
19359;DHT22;9815;52.334;20.890;2023-04-26T13:33:23;10.10;36.90
19359;DHT22;9815;52.334;20.890;2023-04-26T13:35:51;10.10;37.70
19359;DHT22;9815;52.334;20.890;2023-04-26T13:38:19;10.00;35.50
19359;DHT22;9815;52.334;20.890;2023-04-26T13:40:47;9.90;34.50
19359;DHT22;9815;52.334;20.890;2023-04-26T13:43:15;9.80;37.00
19359;DHT22;9815;52.334;20.890;2023-04-26T13:45:43;9.90;35.80
19359;DHT22;9815;52.334;20.890;2023-04-26T13:48:14;9.90;34.60
19359;DHT22;9815;52.334;20.890;2023-04-26T13:50:44;10.00;35.00
19359;DHT22;9815;52.334;20.890;2023-04-26T13:53:12;10.10;36.50
19359;DHT22;9815;52.334;20.890;2023-04-26T13:55:40;10.20;35.40
19359;DHT22;9815;52.334;20.890;2023-04-26T13:58:09;10.20;35.90
19359;DHT22;9815;52.334;20.890;2023-04-26T14:00:37;10.10;35.80
19359;DHT22;9815;52.334;20.890;2023-04-26T14:03:05;10.20;36.60
19359;DHT22;9815;52.334;20.890;2023-04-26T14:05:33;10.00;36.90
19359;DHT22;9815;52.334;20.890;2023-04-26T14:08:03;9.90;37.30
19359;DHT22;9815;52.334;20.890;2023-04-26T14:10:32;9.70;36.40
19359;DHT22;9815;52.334;20.890;2023-04-26T14:13:00;9.60;37.20
19359;DHT22;9815;52.334;20.890;2023-04-26T14:15:28;9.60;39.30
19359;DHT22;9815;52.334;20.890;2023-04-26T14:17:56;9.50;37.70
19359;DHT22;9815;52.334;20.890;2023-04-26T14:20:24;9.30;36.50
19359;DHT22;9815;52.334;20.890;2023-04-26T14:22:52;9.30;38.30
19359;DHT22;9815;52.334;20.890;2023-04-26T14:25:22;9.30;39.40
19359;DHT22;9815;52.334;20.890;2023-04-26T14:27:50;9.30;39.40
19359;DHT22;9815;52.334;20.890;2023-04-26T14:30:19;9.30;39.60
19359;DHT22;9815;52.334;20.890;2023-04-26T14:32:47;9.30;39.50
19359;DHT22;9815;52.334;20.890;2023-04-26T14:35:15;9.50;39.70
19359;DHT22;9815;52.334;20.890;2023-04-26T14:37:44;9.50;38.70
19359;DHT22;9815;52.334;20.890;2023-04-26T14:40:12;9.50;39.60
19359;DHT22;9815;52.334;20.890;2023-04-26T14:42:41;9.50;39.80
19359;DHT22;9815;52.334;20.890;2023-04-26T14:45:12;9.50;41.00
19359;DHT22;9815;52.334;20.890;2023-04-26T14:47:40;9.40;40.30
19359;DHT22;9815;52.334;20.890;2023-04-26T14:50:09;9.30;40.90
19359;DHT22;9815;52.334;20.890;2023-04-26T14:52:39;9.30;42.60
19359;DHT22;9815;52.334;20.890;2023-04-26T14:55:08;9.30;44.20
19359;DHT22;9815;52.334;20.890;2023-04-26T14:57:38;9.40;42.90
19359;DHT22;9815;52.334;20.890;2023-04-26T15:00:10;9.50;43.80
19359;DHT22;9815;52.334;20.890;2023-04-26T15:02:41;9.60;45.40
19359;DHT22;9815;52.334;20.890;2023-04-26T15:05:11;9.50;41.90
19359;DHT22;9815;52.334;20.890;2023-04-26T15:07:39;9.50;43.40
19359;DHT22;9815;52.334;20.890;2023-04-26T15:10:08;9.50;44.30
19359;DHT22;9815;52.334;20.890;2023-04-26T15:12:37;9.60;50.30
19359;DHT22;9815;52.334;20.890;2023-04-26T15:15:06;9.60;47.80
19359;DHT22;9815;52.334;20.890;2023-04-26T15:17:35;9.50;45.90
19359;DHT22;9815;52.334;20.890;2023-04-26T15:20:05;9.40;43.40
19359;DHT22;9815;52.334;20.890;2023-04-26T15:22:35;9.30;48.80
19359;DHT22;9815;52.334;20.890;2023-04-26T15:25:06;9.40;47.50
19359;DHT22;9815;52.334;20.890;2023-04-26T15:27:34;9.30;47.50
19359;DHT22;9815;52.334;20.890;2023-04-26T15:30:03;9.20;43.90
19359;DHT22;9815;52.334;20.890;2023-04-26T15:32:31;9.10;42.90
19359;DHT22;9815;52.334;20.890;2023-04-26T15:35:01;9.10;41.90
19359;DHT22;9815;52.334;20.890;2023-04-26T15:37:31;9.00;41.60
19359;DHT22;9815;52.334;20.890;2023-04-26T15:39:59;9.00;41.20
19359;DHT22;9815;52.334;20.890;2023-04-26T15:42:27;9.00;43.70
19359;DHT22;9815;52.334;20.890;2023-04-26T15:44:55;9.00;42.50
19359;DHT22;9815;52.334;20.890;2023-04-26T15:47:23;8.90;43.10
19359;DHT22;9815;52.334;20.890;2023-04-26T15:49:51;8.80;41.60
19359;DHT22;9815;52.334;20.890;2023-04-26T15:52:21;8.80;43.30
19359;DHT22;9815;52.334;20.890;2023-04-26T15:54:50;8.70;43.50
19359;DHT22;9815;52.334;20.890;2023-04-26T15:57:18;8.70;44.00
19359;DHT22;9815;52.334;20.890;2023-04-26T15:59:46;8.70;48.90
19359;DHT22;9815;52.334;20.890;2023-04-26T16:02:14;8.70;47.20
19359;DHT22;9815;52.334;20.890;2023-04-26T16:04:43;8.70;46.20